Time;durP1;ratioP1;P1;durP2;ratioP2;P2;SDS_P1;SDS_P2;PMS_P1;PMS_P2;Temp;Humidity;BMP_temperature;BMP_pressure;BME280_temperature;BME280_humidity;BME280_pressure;Samples;Min_cycle;Max_cycle;Signal;HPM_P1;HPM_P2
2024/03/29 00:02:18;;;;;;;0.98;0.50;;;;;;;9.71;79.99;98748.69;5118335;28;20027;-74
2024/03/29 00:04:48;;;;;;;2.05;0.82;;;;;;;9.66;79.89;98741.16;5105113;29;20019;-74
2024/03/29 00:07:18;;;;;;;1.77;0.50;;;;;;;9.57;79.97;98735.66;5105016;28;20031;-74
2024/03/29 00:09:48;;;;;;;2.58;0.82;;;;;;;9.55;80.55;98727.09;5104179;29;20107;-72
2024/03/29 00:12:19;;;;;;;1.85;0.55;;;;;;;9.52;80.96;98733.31;5106649;28;20030;-76
2024/03/29 00:14:51;;;;;;;1.55;0.43;;;;;;;9.48;80.85;98738.84;5106927;28;20087;-75
2024/03/29 00:17:21;;;;;;;0.80;0.30;;;;;;;9.46;80.40;98730.28;5100229;29;20037;-75
2024/03/29 00:19:52;;;;;;;2.60;0.25;;;;;;;9.49;80.14;98725.69;5102154;29;20024;-75
2024/03/29 00:22:23;;;;;;;1.38;0.20;;;;;;;9.50;80.72;98723.94;5119292;28;20138;-73
2024/03/29 00:24:54;;;;;;;0.85;0.30;;;;;;;9.55;80.52;98724.47;5104785;29;20110;-74
2024/03/29 00:27:26;;;;;;;0.50;0.20;;;;;;;9.48;81.11;98724.00;5107074;28;20075;-73
2024/03/29 00:29:57;;;;;;;0.50;0.20;;;;;;;9.42;81.30;98726.16;5107921;28;20099;-75
2024/03/29 00:32:27;;;;;;;0.52;0.17;;;;;;;9.56;80.60;98723.56;5102840;28;20365;-73
2024/03/29 00:34:58;;;;;;;1.55;0.30;;;;;;;9.54;80.76;98728.03;5103676;29;20027;-73
2024/03/29 00:37:28;;;;;;;1.42;0.32;;;;;;;9.48;80.63;98720.59;5100946;29;20537;-73
2024/03/29 00:39:58;;;;;;;0.43;0.20;;;;;;;9.38;81.18;98719.44;5106757;28;20471;-75
2024/03/29 00:42:28;;;;;;;0.73;0.22;;;;;;;9.24;82.78;98724.66;5102810;28;20036;-75
2024/03/29 00:44:59;;;;;;;2.10;0.20;;;;;;;9.25;81.84;98719.34;5102453;28;20028;-74
2024/03/29 00:47:29;;;;;;;0.75;0.20;;;;;;;9.23;82.17;98720.38;5100645;28;20122;-72
2024/03/29 00:50:00;;;;;;;0.82;0.30;;;;;;;9.24;81.78;98735.94;5102491;29;20103;-75
2024/03/29 00:52:30;;;;;;;0.50;0.30;;;;;;;9.35;81.43;98730.06;5115854;28;20258;-73
2024/03/29 00:55:01;;;;;;;1.50;0.30;;;;;;;9.34;81.37;98723.19;5104091;29;20034;-75
2024/03/29 00:57:31;;;;;;;0.93;0.22;;;;;;;9.36;80.82;98723.91;5102105;28;20028;-75
2024/03/29 01:00:03;;;;;;;1.73;0.57;;;;;;;9.35;81.10;98736.09;5104683;29;20035;-74
2024/03/29 01:02:34;;;;;;;2.05;0.25;;;;;;;9.34;80.69;98738.81;5104166;29;20035;-74
2024/03/29 01:05:05;;;;;;;0.63;0.20;;;;;;;9.31;81.15;98734.63;5107159;28;20019;-72
2024/03/29 01:07:36;;;;;;;0.30;0.10;;;;;;;9.33;80.58;98739.75;5104678;29;20071;-74
2024/03/29 01:10:07;;;;;;;0.50;0.28;;;;;;;9.31;80.37;98744.22;5101359;29;20593;-74
2024/03/29 01:12:39;;;;;;;1.75;0.30;;;;;;;9.28;81.07;98742.63;5101745;29;20027;-74
2024/03/29 01:15:09;;;;;;;1.05;0.20;;;;;;;9.23;80.78;98754.25;5104862;28;20039;-74
2024/03/29 01:17:39;;;;;;;1.33;0.28;;;;;;;9.15;80.93;98748.66;5101639;29;20035;-73
2024/03/29 01:20:11;;;;;;;1.23;0.30;;;;;;;9.18;80.81;98738.06;5118234;28;20022;-74
2024/03/29 01:22:41;;;;;;;1.20;0.50;;;;;;;9.19;80.59;98747.53;5104478;29;20041;-74
2024/03/29 01:25:14;;;;;;;0.20;0.20;;;;;;;9.16;80.90;98750.34;5104435;28;20475;-75
2024/03/29 01:27:44;;;;;;;0.63;0.30;;;;;;;9.10;80.64;98740.25;5106874;29;20071;-74
2024/03/29 01:30:14;;;;;;;0.77;0.30;;;;;;;9.06;80.40;98738.75;5102924;28;20078;-74
2024/03/29 01:32:45;;;;;;;2.15;0.35;;;;;;;9.07;80.73;98730.03;5102085;29;21538;-75
2024/03/29 01:35:15;;;;;;;0.40;0.20;;;;;;;9.11;80.75;98734.16;5106441;29;20019;-74
2024/03/29 01:37:45;;;;;;;0.85;0.30;;;;;;;9.18;80.10;98738.88;5097279;29;20401;-75
2024/03/29 01:40:16;;;;;;;1.73;0.35;;;;;;;9.27;79.72;98732.28;5101061;29;20027;-74
2024/03/29 01:42:46;;;;;;;1.02;0.30;;;;;;;9.23;79.43;98736.00;5098646;28;20466;-74
2024/03/29 01:45:16;;;;;;;1.63;0.10;;;;;;;9.32;79.41;98728.47;5102641;28;20024;-74
2024/03/29 01:47:47;;;;;;;0.10;0.10;;;;;;;9.29;79.02;98727.84;5097486;29;20019;-72
2024/03/29 01:50:17;;;;;;;0.35;0.20;;;;;;;9.26;79.50;98730.59;5098919;28;20035;-74
2024/03/29 01:52:49;;;;;;;0.32;0.20;;;;;;;9.28;79.28;98728.78;5101240;28;20029;-74
2024/03/29 01:55:20;;;;;;;0.30;0.20;;;;;;;9.19;79.61;98729.31;5086777;28;20036;-75
2024/03/29 01:57:51;;;;;;;2.35;0.30;;;;;;;9.21;79.35;98727.44;5097130;28;20083;-73
2024/03/29 02:00:21;;;;;;;0.85;0.20;;;;;;;9.23;79.35;98736.00;5095260;29;20035;-73
2024/03/29 02:02:52;;;;;;;1.38;0.25;;;;;;;9.20;79.53;98737.03;5106119;28;20023;-73
2024/03/29 02:05:22;;;;;;;2.90;0.20;;;;;;;9.22;79.16;98745.59;5104304;29;20027;-74
2024/03/29 02:07:54;;;;;;;0.75;0.20;;;;;;;9.23;79.26;98756.84;5104152;28;20107;-74
2024/03/29 02:10:24;;;;;;;1.63;0.20;;;;;;;9.24;79.68;98764.59;5100647;28;20031;-74
2024/03/29 02:12:55;;;;;;;1.27;0.30;;;;;;;9.26;79.06;98762.72;5099444;28;20027;-75
2024/03/29 02:15:25;;;;;;;0.93;0.35;;;;;;;9.22;79.10;98768.22;5117326;28;20561;-73
2024/03/29 02:17:56;;;;;;;1.38;0.20;;;;;;;9.11;79.79;98770.63;5101552;28;20027;-75
2024/03/29 02:20:26;;;;;;;1.90;0.30;;;;;;;9.10;79.94;98794.16;5104865;28;20087;-73
2024/03/29 02:23:19;;;;;;;0.80;0.20;;;;;;;8.96;80.11;98794.97;5102110;29;20027;-76
2024/03/29 02:25:50;;;;;;;0.90;0.20;;;;;;;8.85;80.74;98796.47;5098098;28;20511;-75
2024/03/29 02:28:22;;;;;;;1.70;0.40;;;;;;;8.63;81.76;98807.28;5104165;28;20062;-74
2024/03/29 02:30:52;;;;;;;0.35;0.20;;;;;;;8.61;81.82;98816.94;5100339;28;20019;-75
2024/03/29 02:33:23;;;;;;;1.40;0.30;;;;;;;8.49;82.74;98819.38;5104879;28;20038;-75
2024/03/29 02:35:53;;;;;;;1.10;0.20;;;;;;;8.52;83.29;98809.63;5102239;28;20442;-75
2024/03/29 02:38:23;;;;;;;1.23;0.20;;;;;;;8.56;81.96;98805.09;5114605;28;20031;-74
2024/03/29 02:40:54;;;;;;;1.75;0.10;;;;;;;8.53;82.17;98795.69;5104815;28;20119;-73
2024/03/29 02:43:24;;;;;;;0.88;0.25;;;;;;;8.48;82.21;98794.25;5105776;28;20359;-75
2024/03/29 02:45:55;;;;;;;2.15;0.30;;;;;;;8.57;82.34;98799.78;5099627;28;20506;-75
2024/03/29 02:48:25;;;;;;;1.58;0.40;;;;;;;8.52;81.43;98793.19;5104631;28;20509;-73
2024/03/29 02:50:55;;;;;;;0.65;0.13;;;;;;;8.50;82.18;98793.25;5117373;28;20074;-75
2024/03/29 02:53:26;;;;;;;0.55;0.20;;;;;;;8.36;83.05;98793.19;5099358;29;20301;-73
2024/03/29 02:55:56;;;;;;;1.25;0.20;;;;;;;8.09;85.32;98789.47;5101769;28;20024;-73
2024/03/29 02:58:26;;;;;;;0.13;0.13;;;;;;;8.06;85.95;98794.81;5101535;29;20122;-75
2024/03/29 03:00:57;;;;;;;0.77;0.20;;;;;;;7.96;86.44;98783.25;5102191;29;20090;-74
2024/03/29 03:03:27;;;;;;;0.82;0.20;;;;;;;7.96;87.22;98772.84;5104911;28;20039;-75
2024/03/29 03:05:57;;;;;;;0.77;0.10;;;;;;;7.93;87.12;98762.59;5100494;28;20051;-74
2024/03/29 03:11:18;;;;;;;0.70;0.10;;;;;;;7.88;86.76;98754.19;5101142;28;20263;-75
2024/03/29 03:13:48;;;;;;;0.88;0.22;;;;;;;7.86;87.41;98730.03;5099032;28;20027;-73
2024/03/29 03:16:19;;;;;;;0.50;0.20;;;;;;;7.90;87.97;98728.94;5098603;29;20042;-74
2024/03/29 03:18:50;;;;;;;1.08;0.25;;;;;;;7.93;87.97;98725.34;5102221;28;20146;-73
2024/03/29 03:21:21;;;;;;;0.28;0.28;;;;;;;7.95;87.98;98723.50;5104664;29;20447;-74
2024/03/29 03:23:51;;;;;;;1.17;0.30;;;;;;;7.98;87.52;98726.78;5114872;28;20020;-75
2024/03/29 03:26:21;;;;;;;1.92;0.50;;;;;;;7.96;87.79;98705.22;5104437;28;20023;-74
2024/03/29 03:28:52;;;;;;;0.28;0.20;;;;;;;7.89;87.88;98700.44;5102156;28;20027;-75
2024/03/29 03:31:22;;;;;;;0.30;0.17;;;;;;;7.84;88.93;98711.06;5111209;28;20415;-74
2024/03/29 03:33:52;;;;;;;0.68;0.10;;;;;;;7.81;89.31;98710.41;5104150;28;20035;-73
2024/03/29 03:36:23;;;;;;;1.48;0.20;;;;;;;7.72;89.84;98711.72;5106280;29;20236;-74
2024/03/29 03:38:53;;;;;;;0.95;0.40;;;;;;;7.68;90.50;98704.19;5106290;28;20414;-74
2024/03/29 03:41:23;;;;;;;0.73;0.20;;;;;;;7.66;90.16;98712.06;5107692;29;20022;-74
2024/03/29 03:43:54;;;;;;;0.93;0.20;;;;;;;7.76;90.49;98721.06;5098621;28;20030;-75
2024/03/29 03:46:24;;;;;;;2.72;0.30;;;;;;;7.82;89.90;98718.13;5103634;29;20060;-75
2024/03/29 03:48:54;;;;;;;1.27;0.30;;;;;;;7.83;89.86;98725.00;5104616;28;20031;-74
2024/03/29 03:51:25;;;;;;;1.65;0.20;;;;;;;7.91;90.21;98729.78;5106271;28;20039;-75
2024/03/29 03:53:55;;;;;;;0.55;0.20;;;;;;;7.96;89.98;98731.22;5103161;28;20110;-74
2024/03/29 03:56:25;;;;;;;0.55;0.30;;;;;;;7.99;90.04;98740.59;5105948;28;20031;-75
2024/03/29 03:58:55;;;;;;;0.68;0.32;;;;;;;7.98;89.46;98734.56;5102577;28;20475;-74
2024/03/29 04:01:26;;;;;;;1.65;0.80;;;;;;;8.03;89.49;98739.53;5104678;29;20034;-74
2024/03/29 04:03:56;;;;;;;0.65;0.35;;;;;;;8.16;88.75;98723.16;5101578;28;20089;-74
2024/03/29 04:06:26;;;;;;;0.57;0.30;;;;;;;8.26;87.69;98749.53;5104076;29;20039;-75
2024/03/29 04:08:57;;;;;;;0.10;0.10;;;;;;;8.22;88.01;98740.22;5098046;28;20031;-74
2024/03/29 04:11:28;;;;;;;1.65;0.30;;;;;;;8.22;88.18;98738.44;5104734;29;20024;-75
2024/03/29 04:13:58;;;;;;;0.93;0.20;;;;;;;8.26;87.88;98742.59;5099429;28;20376;-74
2024/03/29 04:16:29;;;;;;;0.57;0.20;;;;;;;8.29;87.83;98739.81;5105093;29;20047;-73
2024/03/29 04:18:59;;;;;;;0.55;0.20;;;;;;;8.26;87.36;98729.56;5103741;28;20523;-73
2024/03/29 04:21:29;;;;;;;1.27;0.30;;;;;;;8.30;87.34;98723.28;5105788;29;20063;-76
2024/03/29 04:24:00;;;;;;;1.15;0.30;;;;;;;8.36;87.67;98737.72;5102082;28;20380;-74
2024/03/29 04:26:30;;;;;;;0.85;0.20;;;;;;;8.33;87.65;98730.03;5105575;28;20023;-74
2024/03/29 04:29:00;;;;;;;0.70;0.20;;;;;;;8.28;88.69;98709.50;5102285;28;20032;-75
2024/03/29 04:31:31;;;;;;;0.25;0.20;;;;;;;8.32;88.67;98721.41;5105394;28;20028;-75
2024/03/29 04:34:01;;;;;;;1.00;0.20;;;;;;;8.30;88.98;98725.00;5100976;28;20031;-74
2024/03/29 04:36:31;;;;;;;0.50;0.15;;;;;;;8.20;89.85;98734.28;5104821;29;20019;-75
2024/03/29 04:39:01;;;;;;;0.75;0.20;;;;;;;8.17;90.33;98735.25;5102861;28;20028;-75
2024/03/29 04:41:34;;;;;;;0.88;0.30;;;;;;;8.25;89.63;98721.84;5104980;29;20058;-75
2024/03/29 04:44:04;;;;;;;0.63;0.30;;;;;;;8.33;90.05;98730.91;5099475;29;20020;-75
2024/03/29 04:46:35;;;;;;;0.10;0.10;;;;;;;8.40;88.59;98723.59;5102999;29;20028;-74
2024/03/29 04:49:05;;;;;;;0.88;0.30;;;;;;;8.49;88.34;98731.72;5102265;28;20024;-75
2024/03/29 04:51:35;;;;;;;0.28;0.20;;;;;;;8.51;88.70;98740.28;5101908;28;20023;-72
2024/03/29 04:54:05;;;;;;;0.20;0.20;;;;;;;8.52;88.81;98728.94;5102023;28;20059;-73
2024/03/29 04:56:36;;;;;;;0.20;0.20;;;;;;;8.56;88.25;98732.22;5104959;28;20446;-73
2024/03/29 04:59:07;;;;;;;1.88;0.60;;;;;;;8.59;87.57;98727.66;5103682;29;20062;-73
2024/03/29 05:01:38;;;;;;;1.58;0.20;;;;;;;8.69;87.23;98748.81;5103387;29;20082;-73
2024/03/29 05:04:08;;;;;;;1.60;0.30;;;;;;;8.62;87.67;98763.09;5099297;29;20023;-73
2024/03/29 05:06:38;;;;;;;1.25;0.20;;;;;;;8.54;88.41;98780.94;5102275;28;20066;-73
2024/03/29 05:09:11;;;;;;;0.32;0.15;;;;;;;8.62;88.46;98795.19;5104501;28;20032;-73
2024/03/29 05:11:42;;;;;;;1.52;0.28;;;;;;;8.55;88.68;98793.84;5104793;29;20222;-72
2024/03/29 05:14:14;;;;;;;0.73;0.38;;;;;;;8.57;87.32;98796.38;5099831;29;20024;-73
2024/03/29 05:16:45;;;;;;;1.52;0.90;;;;;;;8.56;87.27;98790.31;5104262;28;20065;-73
2024/03/29 05:19:16;;;;;;;1.45;0.35;;;;;;;8.64;87.01;98784.66;5102850;29;20098;-74
2024/03/29 05:21:46;;;;;;;1.27;0.38;;;;;;;8.72;87.22;98796.34;5103329;29;20031;-73
2024/03/29 05:24:17;;;;;;;1.40;0.35;;;;;;;8.77;86.04;98804.75;5099879;28;20031;-73
2024/03/29 05:26:47;;;;;;;0.43;0.43;;;;;;;8.76;85.59;98807.41;5100164;29;20062;-73
2024/03/29 05:29:18;;;;;;;2.35;0.20;;;;;;;8.85;84.46;98823.38;5099822;28;20041;-73
2024/03/29 05:31:48;;;;;;;1.35;0.32;;;;;;;8.89;84.31;98821.44;5100839;28;20490;-73
2024/03/29 05:34:18;;;;;;;1.08;0.30;;;;;;;8.77;83.86;98830.78;5098048;28;20498;-73
2024/03/29 05:36:49;;;;;;;1.38;0.20;;;;;;;8.90;84.56;98834.34;5101031;28;20030;-73
2024/03/29 05:39:20;;;;;;;1.05;0.22;;;;;;;8.92;84.25;98837.72;5103306;28;20139;-73
2024/03/29 05:41:50;;;;;;;0.75;0.43;;;;;;;8.95;84.81;98842.78;5104542;28;20118;-71
2024/03/29 05:44:20;;;;;;;0.63;0.30;;;;;;;8.96;84.96;98828.81;5100645;29;20022;-73
2024/03/29 05:46:50;;;;;;;3.50;0.17;;;;;;;8.96;84.92;98831.44;5121817;28;20035;-72
2024/03/29 05:49:21;;;;;;;1.75;0.30;;;;;;;8.90;84.47;98834.34;5105841;29;20037;-73
2024/03/29 05:51:51;;;;;;;1.33;0.43;;;;;;;9.01;84.97;98858.03;5105177;28;20031;-72
2024/03/29 05:54:22;;;;;;;1.10;0.38;;;;;;;8.95;84.77;98847.97;5098088;29;20099;-73
2024/03/29 05:56:53;;;;;;;0.80;0.22;;;;;;;8.99;85.38;98839.06;5104375;28;20333;-73
2024/03/29 05:59:23;;;;;;;1.20;0.28;;;;;;;9.12;86.32;98844.41;5103851;29;20028;-73
2024/03/29 06:01:53;;;;;;;1.38;0.30;;;;;;;9.16;87.09;98838.94;5102853;28;20035;-73
2024/03/29 06:04:30;;;;;;;1.05;0.20;;;;;;;9.24;86.99;98852.34;5100952;29;20032;-73
2024/03/29 06:07:04;;;;;;;0.55;0.20;;;;;;;9.45;86.91;98851.13;5103843;28;20031;-73
2024/03/29 06:09:35;;;;;;;0.68;0.30;;;;;;;9.55;86.24;98850.50;5103114;29;20028;-73
2024/03/29 06:12:07;;;;;;;0.77;0.20;;;;;;;9.76;86.05;98845.75;5103214;29;20039;-73
2024/03/29 06:17:27;;;;;;;0.85;0.25;;;;;;;10.11;85.15;98852.31;5104253;29;20174;-74
2024/03/29 06:19:58;;;;;;;0.20;0.20;;;;;;;10.21;84.60;98850.84;5101487;28;20023;-73
2024/03/29 06:22:30;;;;;;;0.32;0.10;;;;;;;10.26;85.07;98867.06;5102853;29;20027;-73
2024/03/29 06:25:04;;;;;;;0.82;0.17;;;;;;;10.33;84.61;98863.16;5100934;29;20020;-74
2024/03/29 06:27:36;;;;;;;0.98;0.20;;;;;;;10.40;84.52;98870.50;5103864;28;20275;-74
2024/03/29 06:30:08;;;;;;;0.80;0.20;;;;;;;10.39;85.58;98873.19;5100431;28;20388;-73
2024/03/29 06:32:38;;;;;;;2.03;0.30;;;;;;;10.35;86.17;98877.75;5104019;29;20023;-72
2024/03/29 06:35:09;;;;;;;1.20;0.40;;;;;;;10.46;86.17;98869.25;5101372;28;20372;-73
2024/03/29 06:37:40;;;;;;;0.73;0.28;;;;;;;10.48;86.66;98877.88;5103728;28;20086;-73
2024/03/29 06:40:10;;;;;;;0.43;0.20;;;;;;;10.40;87.87;98870.50;5100403;28;20122;-74
2024/03/29 06:42:41;;;;;;;0.35;0.10;;;;;;;10.45;89.12;98867.59;5103311;29;20039;-73
2024/03/29 06:45:11;;;;;;;2.05;0.45;;;;;;;10.34;88.86;98860.41;5120378;28;20028;-73
2024/03/29 06:47:41;;;;;;;0.82;0.30;;;;;;;10.39;89.97;98861.00;5107371;28;20078;-73
2024/03/29 06:50:12;;;;;;;0.88;0.68;;;;;;;10.35;90.62;98850.84;5106568;28;20027;-73
2024/03/29 06:52:42;;;;;;;0.35;0.20;;;;;;;10.21;92.58;98848.22;5105605;29;20240;-72
2024/03/29 06:55:13;;;;;;;0.57;0.30;;;;;;;10.18;92.75;98845.81;5107691;28;20055;-74
2024/03/29 06:57:44;;;;;;;1.08;0.38;;;;;;;10.19;93.97;98837.03;5123020;28;20038;-72
2024/03/29 07:00:14;;;;;;;0.40;0.15;;;;;;;10.18;93.93;98844.03;5105594;29;20035;-73
2024/03/29 07:02:45;;;;;;;1.48;0.20;;;;;;;10.22;94.60;98844.69;5105704;29;20050;-73
2024/03/29 07:05:15;;;;;;;0.57;0.20;;;;;;;10.21;95.40;98838.66;5104881;29;20031;-74
2024/03/29 07:07:47;;;;;;;0.55;0.10;;;;;;;10.10;96.58;98846.28;5122278;28;20470;-73
2024/03/29 07:10:17;;;;;;;2.88;0.50;;;;;;;10.03;93.81;98838.91;5108620;28;20027;-74
2024/03/29 07:12:47;;;;;;;0.63;0.22;;;;;;;10.15;92.55;98832.97;5106853;28;20035;-71
2024/03/29 07:15:18;;;;;;;0.60;0.22;;;;;;;10.18;93.20;98832.75;5107258;28;20028;-72
2024/03/29 07:17:50;;;;;;;0.57;0.20;;;;;;;10.10;92.96;98821.94;5109674;28;20477;-73
2024/03/29 07:20:20;;;;;;;1.27;0.40;;;;;;;10.09;94.48;98813.28;5125394;28;20450;-73
2024/03/29 07:22:51;;;;;;;0.90;0.20;;;;;;;10.10;93.26;98814.09;5108561;28;20035;-73
2024/03/29 07:25:21;;;;;;;1.00;0.38;;;;;;;10.12;94.05;98820.06;5123904;28;20704;-73
2024/03/29 07:27:52;;;;;;;0.43;0.15;;;;;;;10.17;93.76;98825.88;5110213;28;20113;-71
2024/03/29 07:30:22;;;;;;;1.05;0.30;;;;;;;10.18;92.99;98811.88;5107410;28;20578;-73
2024/03/29 07:32:53;;;;;;;1.23;0.30;;;;;;;10.28;92.99;98806.00;5104029;28;20027;-72
2024/03/29 07:35:23;;;;;;;0.70;0.20;;;;;;;10.29;92.94;98804.19;5105876;29;20031;-73
2024/03/29 07:37:54;;;;;;;0.82;0.30;;;;;;;10.28;93.57;98802.53;5109135;28;20418;-71
2024/03/29 07:40:24;;;;;;;0.20;0.20;;;;;;;10.25;93.53;98792.28;5107126;28;20031;-73
2024/03/29 07:42:55;;;;;;;0.57;0.22;;;;;;;10.18;93.66;98794.44;5106563;28;20028;-71
2024/03/29 07:45:26;;;;;;;0.77;0.30;;;;;;;10.29;91.11;98788.53;5107298;28;20092;-74
2024/03/29 07:47:57;;;;;;;1.15;0.20;;;;;;;10.56;90.80;98776.34;5104986;28;20483;-73
2024/03/29 07:50:28;;;;;;;0.77;0.25;;;;;;;10.71;89.33;98775.38;5109753;28;20027;-74
2024/03/29 07:52:58;;;;;;;1.60;0.15;;;;;;;10.92;88.68;98774.81;5105089;28;20035;-72
2024/03/29 07:55:28;;;;;;;1.50;0.47;;;;;;;10.93;88.47;98776.50;5105168;29;20031;-73
2024/03/29 07:57:59;;;;;;;1.73;0.20;;;;;;;10.94;88.11;98779.94;5105563;28;20495;-73
2024/03/29 08:00:31;;;;;;;0.70;0.28;;;;;;;11.11;87.24;98765.63;5109391;28;20351;-73
2024/03/29 08:03:02;;;;;;;0.93;0.30;;;;;;;11.02;86.34;98761.03;5105499;28;20059;-72
2024/03/29 08:05:33;;;;;;;0.73;0.40;;;;;;;10.87;85.72;98761.19;5106611;28;20020;-74
2024/03/29 08:08:04;;;;;;;0.25;0.20;;;;;;;10.86;85.44;98766.53;5107485;28;20506;-73
2024/03/29 08:10:34;;;;;;;0.75;0.30;;;;;;;11.15;85.42;98761.06;5106771;29;20056;-74
2024/03/29 08:13:06;;;;;;;0.85;0.30;;;;;;;11.14;85.46;98752.34;5103048;28;20032;-73
2024/03/29 08:15:36;;;;;;;1.83;0.30;;;;;;;11.24;85.37;98755.22;5108697;29;20933;-73
2024/03/29 08:18:07;;;;;;;2.58;0.20;;;;;;;11.31;85.96;98753.84;5106441;29;20043;-73
2024/03/29 08:20:37;;;;;;;0.55;0.20;;;;;;;11.59;87.12;98751.91;5109692;29;20121;-74
2024/03/29 08:23:08;;;;;;;0.25;0.17;;;;;;;11.82;85.99;98755.56;5105229;28;20058;-71
2024/03/29 08:25:38;;;;;;;1.60;0.20;;;;;;;11.98;84.79;98754.38;5107721;29;20494;-74
2024/03/29 08:28:08;;;;;;;1.63;0.43;;;;;;;12.07;83.29;98758.97;5104253;28;20169;-73
2024/03/29 08:30:39;;;;;;;1.08;0.20;;;;;;;12.42;85.14;98759.91;5107026;29;20031;-73
2024/03/29 08:33:09;;;;;;;1.92;0.20;;;;;;;12.60;83.16;98761.22;5106618;29;20027;-73
2024/03/29 08:35:43;;;;;;;0.73;0.40;;;;;;;12.42;83.00;98769.53;5108599;28;20042;-74
2024/03/29 08:38:13;;;;;;;0.50;0.20;;;;;;;12.29;82.94;98748.63;5107112;28;20035;-74
2024/03/29 08:40:46;;;;;;;0.52;0.25;;;;;;;12.25;83.87;98731.47;5103687;29;20050;-71
2024/03/29 08:43:17;;;;;;;1.27;0.40;;;;;;;12.01;83.77;98732.38;5099442;29;20391;-74
2024/03/29 08:45:48;;;;;;;1.27;0.30;;;;;;;12.13;84.14;98732.34;5098187;29;20028;-72
2024/03/29 08:48:18;;;;;;;0.45;0.20;;;;;;;12.04;85.07;98742.63;5099059;29;20637;-72
2024/03/29 08:50:48;;;;;;;0.20;0.20;;;;;;;11.95;85.09;98744.13;5099548;29;20632;-73
2024/03/29 08:53:21;;;;;;;1.13;0.43;;;;;;;11.88;85.69;98732.41;5104604;29;20797;-73
2024/03/29 08:55:51;;;;;;;0.30;0.17;;;;;;;11.93;85.51;98729.47;5101974;28;20066;-74
2024/03/29 08:58:23;;;;;;;0.98;0.30;;;;;;;11.94;86.41;98729.34;5102436;28;20559;-74
2024/03/29 09:00:55;;;;;;;0.65;0.40;;;;;;;12.04;84.78;98714.69;5102273;28;20030;-72
2024/03/29 09:03:25;;;;;;;1.02;0.17;;;;;;;12.16;84.45;98705.94;5101156;28;20028;-73
2024/03/29 09:05:55;;;;;;;0.32;0.10;;;;;;;12.25;84.23;98718.38;5102554;28;20020;-72
2024/03/29 09:08:26;;;;;;;0.70;0.20;;;;;;;12.49;84.28;98726.25;5102350;28;20110;-73
2024/03/29 09:10:56;;;;;;;0.15;0.15;;;;;;;12.56;84.03;98738.81;5104336;28;20126;-73
2024/03/29 09:13:26;;;;;;;0.50;0.10;;;;;;;12.60;84.25;98742.88;5104701;29;20285;-73
2024/03/29 09:15:57;;;;;;;0.43;0.10;;;;;;;12.55;84.98;98737.13;5098852;28;20028;-73
2024/03/29 09:18:28;;;;;;;0.35;0.15;;;;;;;12.53;84.11;98744.28;5100978;29;20034;-73
2024/03/29 09:20:59;;;;;;;0.47;0.10;;;;;;;12.59;85.05;98749.06;5105132;28;20118;-73
2024/03/29 09:23:30;;;;;;;0.50;0.10;;;;;;;12.47;85.45;98751.72;5105476;28;20029;-74
2024/03/29 09:26:04;;;;;;;0.50;0.20;;;;;;;12.53;84.25;98740.81;5105147;28;20046;-72
2024/03/29 09:28:41;;;;;;;0.68;0.30;;;;;;;12.58;85.45;98749.16;5245681;27;20405;-74
2024/03/29 09:31:12;;;;;;;0.70;0.30;;;;;;;12.66;86.33;98752.91;5242942;28;20463;-74
2024/03/29 09:33:42;;;;;;;0.77;0.30;;;;;;;12.70;87.05;98759.59;5246090;28;20111;-72
2024/03/29 09:36:12;;;;;;;0.98;0.30;;;;;;;12.66;86.55;98752.91;5243022;28;20040;-74
2024/03/29 09:38:43;;;;;;;0.95;0.30;;;;;;;12.70;86.63;98741.25;5244943;28;20035;-72
2024/03/29 09:41:14;;;;;;;2.78;0.40;;;;;;;12.81;86.84;98741.28;5239654;28;20031;-74
2024/03/29 09:43:48;;;;;;;0.55;0.20;;;;;;;12.86;85.07;98739.19;5244503;28;20025;-72
2024/03/29 09:46:18;;;;;;;0.57;0.20;;;;;;;13.06;84.55;98738.56;5242307;28;20040;-74
2024/03/29 09:48:50;;;;;;;0.20;0.17;;;;;;;13.15;84.59;98730.84;5238359;28;20036;-74
2024/03/29 09:51:21;;;;;;;0.30;0.17;;;;;;;13.20;83.55;98733.94;5234656;28;20079;-74
2024/03/29 09:53:51;;;;;;;0.60;0.20;;;;;;;13.27;83.13;98727.28;5236151;28;20047;-74
2024/03/29 09:56:22;;;;;;;0.20;0.10;;;;;;;13.37;82.52;98719.56;5234849;28;20483;-73
2024/03/29 09:58:53;;;;;;;0.10;0.05;;;;;;;13.48;83.08;98706.44;5237104;28;20024;-74
2024/03/29 10:01:24;;;;;;;0.20;0.20;;;;;;;13.68;82.46;98705.72;5235678;28;20036;-72
2024/03/29 10:03:56;;;;;;;0.93;0.13;;;;;;;13.73;83.10;98716.72;5235697;28;20017;-74
2024/03/29 10:06:28;;;;;;;0.17;0.17;;;;;;;13.83;83.15;98720.28;5240416;28;20036;-74
2024/03/29 10:09:00;;;;;;;0.80;0.20;;;;;;;13.85;83.24;98727.09;5242147;28;20080;-74
2024/03/29 10:11:31;;;;;;;0.30;0.10;;;;;;;13.87;84.15;98716.47;5240285;28;20141;-75
2024/03/29 10:14:01;;;;;;;0.40;0.20;;;;;;;13.98;83.25;98719.09;5238512;28;20137;-74
2024/03/29 10:16:32;;;;;;;0.28;0.10;;;;;;;14.12;83.65;98718.84;5231807;28;20028;-72
2024/03/29 10:19:03;;;;;;;0.30;0.10;;;;;;;14.00;81.54;98717.19;5239049;28;20086;-75
2024/03/29 10:21:36;;;;;;;0.60;0.20;;;;;;;14.10;84.26;98715.50;5237013;28;20021;-74
2024/03/29 10:24:14;;;;;;;0.10;0.10;;;;;;;14.05;83.07;98713.25;5240212;28;20426;-72
2024/03/29 10:26:44;;;;;;;0.13;0.10;;;;;;;14.08;83.65;98705.13;5245009;28;20022;-74
2024/03/29 10:29:15;;;;;;;0.22;0.10;;;;;;;14.25;82.98;98703.81;5237592;28;20032;-75
2024/03/29 10:31:49;;;;;;;0.82;0.25;;;;;;;14.14;82.94;98712.53;5244699;28;20471;-72
2024/03/29 10:34:19;;;;;;;0.55;0.10;;;;;;;14.47;83.92;98706.38;5239176;28;20036;-74
2024/03/29 10:36:50;;;;;;;0.10;0.10;;;;;;;14.78;83.23;98709.00;5241484;28;20024;-74
2024/03/29 10:39:21;;;;;;;0.45;0.10;;;;;;;15.00;82.54;98722.88;5230415;28;20082;-74
2024/03/29 10:41:52;;;;;;;0.57;0.20;;;;;;;15.11;80.20;98728.09;5225961;28;20695;-74
2024/03/29 10:44:23;;;;;;;0.57;0.30;;;;;;;15.12;80.60;98735.03;5226943;28;20480;-73
2024/03/29 10:46:57;;;;;;;0.28;0.10;;;;;;;15.30;80.50;98725.63;5226104;28;20647;-72
2024/03/29 10:49:32;;;;;;;0.10;0.03;;;;;;;15.56;79.81;98708.44;5229549;28;20124;-74
2024/03/29 10:52:04;;;;;;;0.05;0.05;;;;;;;15.96;80.16;98713.75;5226635;28;20040;-74
2024/03/29 10:54:37;;;;;;;0.22;0.20;;;;;;;16.42;81.41;98701.69;5226057;28;20039;-75
2024/03/29 10:57:15;;;;;;;0.10;0.10;;;;;;;16.06;78.45;98718.09;5223475;22;20057;-74
2024/03/29 11:00:20;;;;;;;0.10;0.10;;;;;;;15.68;77.35;98711.84;5206202;28;20021;-74
2024/03/29 11:03:13;;;;;;;0.40;0.20;;;;;;;15.52;78.13;98720.22;5195596;28;20136;-73
2024/03/29 11:05:48;;;;;;;0.30;0.20;;;;;;;15.65;78.31;98717.38;5199689;28;20040;-72
2024/03/29 11:08:31;;;;;;;0.10;0.10;;;;;;;15.64;77.79;98727.09;5185805;28;20110;-73
2024/03/29 11:11:04;;;;;;;0.50;0.10;;;;;;;15.90;77.70;98728.28;5183581;28;20466;-71
2024/03/29 11:13:45;;;;;;;0.57;0.10;;;;;;;15.90;77.30;98717.75;5186876;28;20622;-73
2024/03/29 11:16:16;;;;;;;0.40;0.20;;;;;;;16.22;78.67;98717.59;5187534;28;20041;-74
2024/03/29 11:18:47;;;;;;;0.98;0.40;;;;;;;16.21;76.86;98727.31;5171249;28;20079;-72
2024/03/29 11:21:18;;;;;;;0.47;0.10;;;;;;;16.28;76.72;98712.63;5190953;28;20032;-74
2024/03/29 11:23:49;;;;;;;0.13;0.10;;;;;;;16.16;75.33;98708.44;5190380;28;20488;-72
2024/03/29 11:26:20;;;;;;;0.45;0.20;;;;;;;16.37;76.42;98711.03;5193570;28;20053;-73
2024/03/29 11:28:52;;;;;;;1.33;0.20;;;;;;;16.25;75.92;98718.16;5189011;28;20029;-74
2024/03/29 11:31:24;;;;;;;1.02;0.20;;;;;;;16.41;75.95;98723.78;5193904;28;20045;-74
2024/03/29 11:33:57;;;;;;;0.50;0.38;;;;;;;16.39;75.39;98720.44;5190626;28;20443;-72
2024/03/29 11:36:31;;;;;;;0.10;0.10;;;;;;;16.78;75.73;98723.00;5191405;28;20045;-74
2024/03/29 11:39:01;;;;;;;0.50;0.10;;;;;;;16.71;75.40;98739.50;5191498;28;20029;-71
2024/03/29 11:41:32;;;;;;;0.38;0.20;;;;;;;16.72;75.78;98746.44;5188503;28;20127;-73
2024/03/29 11:44:02;;;;;;;0.25;0.20;;;;;;;16.47;76.34;98728.53;5191026;28;20037;-72
2024/03/29 11:46:35;;;;;;;0.45;0.20;;;;;;;16.32;76.46;98737.75;5174351;28;20075;-74
2024/03/29 11:49:05;;;;;;;0.25;0.15;;;;;;;16.19;76.92;98739.78;5192044;28;20029;-72
2024/03/29 11:51:36;;;;;;;0.10;0.10;;;;;;;16.29;76.88;98726.63;5191419;28;20045;-73
2024/03/29 11:54:07;;;;;;;0.20;0.13;;;;;;;16.31;77.15;98725.53;5190869;28;20047;-75
2024/03/29 11:56:37;;;;;;;0.40;0.20;;;;;;;16.29;77.30;98716.09;5191670;28;20036;-73
2024/03/29 11:59:08;;;;;;;0.10;0.10;;;;;;;16.31;77.04;98716.78;5176270;28;20025;-75
2024/03/29 12:01:40;;;;;;;0.28;0.17;;;;;;;16.22;76.11;98718.41;5186938;28;20109;-74